sensor_id;sensor_type;location;lat;lon;timestamp;P1;durP1;ratioP1;P2;durP2;ratioP2
8580;SDS011;4328;48.622;9.230;2023-01-01T00:00:56;309.50;;;231.50;;
8580;SDS011;4328;48.622;9.230;2023-01-01T00:03:22;279.27;;;205.83;;
8580;SDS011;4328;48.622;9.230;2023-01-01T00:05:50;266.93;;;199.77;;
8580;SDS011;4328;48.622;9.230;2023-01-01T00:08:17;247.63;;;182.80;;
8580;SDS011;4328;48.622;9.230;2023-01-01T00:10:43;235.40;;;176.93;;
8580;SDS011;4328;48.622;9.230;2023-01-01T00:13:11;204.40;;;147.37;;
8580;SDS011;4328;48.622;9.230;2023-01-01T00:15:37;180.83;;;132.97;;
8580;SDS011;4328;48.622;9.230;2023-01-01T00:18:04;130.33;;;97.00;;
8580;SDS011;4328;48.622;9.230;2023-01-01T00:20:30;139.80;;;106.67;;
8580;SDS011;4328;48.622;9.230;2023-01-01T00:22:58;98.27;;;78.03;;
8580;SDS011;4328;48.622;9.230;2023-01-01T00:25:25;88.23;;;65.47;;
8580;SDS011;4328;48.622;9.230;2023-01-01T00:27:52;72.97;;;55.83;;
8580;SDS011;4328;48.622;9.230;2023-01-01T00:30:18;74.70;;;55.87;;
8580;SDS011;4328;48.622;9.230;2023-01-01T00:32:45;68.37;;;49.90;;
8580;SDS011;4328;48.622;9.230;2023-01-01T00:35:11;62.87;;;45.77;;
8580;SDS011;4328;48.622;9.230;2023-01-01T00:37:37;58.60;;;44.20;;
8580;SDS011;4328;48.622;9.230;2023-01-01T00:40:06;64.07;;;47.60;;
8580;SDS011;4328;48.622;9.230;2023-01-01T00:42:32;73.70;;;52.40;;
8580;SDS011;4328;48.622;9.230;2023-01-01T00:44:58;68.60;;;52.53;;
8580;SDS011;4328;48.622;9.230;2023-01-01T00:47:25;77.53;;;53.37;;
8580;SDS011;4328;48.622;9.230;2023-01-01T00:49:51;69.07;;;50.97;;
8580;SDS011;4328;48.622;9.230;2023-01-01T00:52:17;69.80;;;49.47;;
8580;SDS011;4328;48.622;9.230;2023-01-01T00:54:44;71.20;;;49.37;;
8580;SDS011;4328;48.622;9.230;2023-01-01T00:57:12;74.93;;;53.13;;
8580;SDS011;4328;48.622;9.230;2023-01-01T00:59:38;64.40;;;47.93;;
8580;SDS011;4328;48.622;9.230;2023-01-01T01:02:04;59.77;;;48.00;;
8580;SDS011;4328;48.622;9.230;2023-01-01T01:04:31;59.83;;;45.90;;
8580;SDS011;4328;48.622;9.230;2023-01-01T01:06:57;64.23;;;47.97;;
8580;SDS011;4328;48.622;9.230;2023-01-01T01:09:23;68.87;;;51.87;;
8580;SDS011;4328;48.622;9.230;2023-01-01T01:11:50;85.93;;;66.20;;
8580;SDS011;4328;48.622;9.230;2023-01-01T01:14:17;95.77;;;70.93;;
8580;SDS011;4328;48.622;9.230;2023-01-01T01:16:44;139.40;;;102.17;;
8580;SDS011;4328;48.622;9.230;2023-01-01T01:19:10;147.53;;;109.43;;
8580;SDS011;4328;48.622;9.230;2023-01-01T01:21:40;158.87;;;119.30;;
8580;SDS011;4328;48.622;9.230;2023-01-01T01:24:06;173.43;;;124.77;;
8580;SDS011;4328;48.622;9.230;2023-01-01T01:26:32;193.27;;;137.93;;
8580;SDS011;4328;48.622;9.230;2023-01-01T01:29:00;184.83;;;134.07;;
8580;SDS011;4328;48.622;9.230;2023-01-01T01:31:29;185.53;;;130.23;;
8580;SDS011;4328;48.622;9.230;2023-01-01T01:33:55;173.03;;;123.37;;
8580;SDS011;4328;48.622;9.230;2023-01-01T01:36:22;147.10;;;109.30;;
8580;SDS011;4328;48.622;9.230;2023-01-01T01:38:49;137.13;;;100.27;;
8580;SDS011;4328;48.622;9.230;2023-01-01T01:41:18;120.50;;;88.40;;
8580;SDS011;4328;48.622;9.230;2023-01-01T01:43:46;114.73;;;84.00;;
8580;SDS011;4328;48.622;9.230;2023-01-01T01:46:16;107.90;;;73.20;;
8580;SDS011;4328;48.622;9.230;2023-01-01T01:48:46;94.93;;;71.80;;
8580;SDS011;4328;48.622;9.230;2023-01-01T01:51:14;91.13;;;64.33;;
8580;SDS011;4328;48.622;9.230;2023-01-01T01:53:42;75.90;;;55.83;;
8580;SDS011;4328;48.622;9.230;2023-01-01T01:56:11;78.60;;;56.07;;
8580;SDS011;4328;48.622;9.230;2023-01-01T01:58:38;76.17;;;56.07;;
8580;SDS011;4328;48.622;9.230;2023-01-01T02:01:04;76.00;;;51.97;;
8580;SDS011;4328;48.622;9.230;2023-01-01T02:03:32;66.80;;;51.37;;
8580;SDS011;4328;48.622;9.230;2023-01-01T02:06:03;68.70;;;47.53;;
8580;SDS011;4328;48.622;9.230;2023-01-01T02:08:29;61.27;;;44.47;;
8580;SDS011;4328;48.622;9.230;2023-01-01T02:10:56;55.60;;;43.13;;
8580;SDS011;4328;48.622;9.230;2023-01-01T02:13:22;58.13;;;42.20;;
8580;SDS011;4328;48.622;9.230;2023-01-01T02:15:50;56.07;;;43.23;;
8580;SDS011;4328;48.622;9.230;2023-01-01T02:18:18;55.77;;;41.03;;
8580;SDS011;4328;48.622;9.230;2023-01-01T02:20:47;54.93;;;41.13;;
8580;SDS011;4328;48.622;9.230;2023-01-01T02:23:25;51.00;;;38.17;;
8580;SDS011;4328;48.622;9.230;2023-01-01T02:26:01;51.93;;;38.10;;
8580;SDS011;4328;48.622;9.230;2023-01-01T02:28:37;48.73;;;35.60;;
8580;SDS011;4328;48.622;9.230;2023-01-01T02:31:07;48.23;;;36.80;;
8580;SDS011;4328;48.622;9.230;2023-01-01T02:33:35;44.37;;;32.67;;
8580;SDS011;4328;48.622;9.230;2023-01-01T02:36:02;39.43;;;30.40;;
8580;SDS011;4328;48.622;9.230;2023-01-01T02:38:30;38.13;;;30.80;;
8580;SDS011;4328;48.622;9.230;2023-01-01T02:40:58;39.07;;;30.93;;
8580;SDS011;4328;48.622;9.230;2023-01-01T02:43:25;40.53;;;30.57;;
8580;SDS011;4328;48.622;9.230;2023-01-01T02:45:53;46.90;;;32.17;;
8580;SDS011;4328;48.622;9.230;2023-01-01T02:48:37;45.50;;;33.17;;
8580;SDS011;4328;48.622;9.230;2023-01-01T02:51:07;43.37;;;32.23;;
8580;SDS011;4328;48.622;9.230;2023-01-01T02:53:36;42.70;;;32.70;;
8580;SDS011;4328;48.622;9.230;2023-01-01T02:56:07;44.20;;;33.20;;
8580;SDS011;4328;48.622;9.230;2023-01-01T02:58:38;45.87;;;35.10;;
8580;SDS011;4328;48.622;9.230;2023-01-01T03:01:26;49.87;;;36.23;;
8580;SDS011;4328;48.622;9.230;2023-01-01T03:03:55;51.70;;;37.10;;
8580;SDS011;4328;48.622;9.230;2023-01-01T03:06:27;48.10;;;36.03;;
8580;SDS011;4328;48.622;9.230;2023-01-01T03:08:57;47.03;;;34.17;;
8580;SDS011;4328;48.622;9.230;2023-01-01T03:11:27;47.73;;;35.50;;
8580;SDS011;4328;48.622;9.230;2023-01-01T03:13:57;45.67;;;34.23;;
8580;SDS011;4328;48.622;9.230;2023-01-01T03:16:28;51.70;;;36.60;;
8580;SDS011;4328;48.622;9.230;2023-01-01T03:18:57;51.53;;;37.63;;
8580;SDS011;4328;48.622;9.230;2023-01-01T03:21:46;55.93;;;38.73;;
8580;SDS011;4328;48.622;9.230;2023-01-01T03:24:16;54.60;;;40.13;;
8580;SDS011;4328;48.622;9.230;2023-01-01T03:26:43;53.13;;;40.57;;
8580;SDS011;4328;48.622;9.230;2023-01-01T03:29:12;54.57;;;41.57;;
8580;SDS011;4328;48.622;9.230;2023-01-01T03:31:41;58.43;;;44.20;;
8580;SDS011;4328;48.622;9.230;2023-01-01T03:34:16;64.43;;;45.97;;
8580;SDS011;4328;48.622;9.230;2023-01-01T03:36:46;63.00;;;45.93;;
8580;SDS011;4328;48.622;9.230;2023-01-01T03:39:15;70.03;;;50.50;;
8580;SDS011;4328;48.622;9.230;2023-01-01T03:41:43;73.40;;;53.13;;
8580;SDS011;4328;48.622;9.230;2023-01-01T03:44:12;77.57;;;57.10;;
8580;SDS011;4328;48.622;9.230;2023-01-01T03:46:41;78.50;;;57.97;;
8580;SDS011;4328;48.622;9.230;2023-01-01T03:49:09;74.70;;;53.27;;
8580;SDS011;4328;48.622;9.230;2023-01-01T03:54:19;67.73;;;49.00;;
8580;SDS011;4328;48.622;9.230;2023-01-01T03:56:50;62.77;;;45.10;;
8580;SDS011;4328;48.622;9.230;2023-01-01T03:59:18;66.37;;;47.30;;
8580;SDS011;4328;48.622;9.230;2023-01-01T04:01:48;65.30;;;47.97;;
8580;SDS011;4328;48.622;9.230;2023-01-01T04:04:16;62.77;;;45.87;;
8580;SDS011;4328;48.622;9.230;2023-01-01T04:06:43;59.40;;;42.90;;
8580;SDS011;4328;48.622;9.230;2023-01-01T04:09:10;51.57;;;36.43;;
8580;SDS011;4328;48.622;9.230;2023-01-01T04:11:39;46.07;;;33.73;;
8580;SDS011;4328;48.622;9.230;2023-01-01T04:14:30;53.37;;;37.53;;
8580;SDS011;4328;48.622;9.230;2023-01-01T04:16:58;59.00;;;39.93;;
8580;SDS011;4328;48.622;9.230;2023-01-01T04:19:25;61.93;;;44.53;;
8580;SDS011;4328;48.622;9.230;2023-01-01T04:21:52;53.57;;;40.07;;
8580;SDS011;4328;48.622;9.230;2023-01-01T04:24:18;54.73;;;40.50;;
8580;SDS011;4328;48.622;9.230;2023-01-01T04:26:45;58.27;;;40.47;;
8580;SDS011;4328;48.622;9.230;2023-01-01T04:29:11;58.40;;;42.30;;
8580;SDS011;4328;48.622;9.230;2023-01-01T04:31:37;60.17;;;44.43;;
8580;SDS011;4328;48.622;9.230;2023-01-01T04:34:05;61.77;;;45.60;;
8580;SDS011;4328;48.622;9.230;2023-01-01T04:36:32;57.43;;;41.90;;
8580;SDS011;4328;48.622;9.230;2023-01-01T04:38:59;54.97;;;41.57;;
8580;SDS011;4328;48.622;9.230;2023-01-01T04:41:25;51.60;;;39.47;;
8580;SDS011;4328;48.622;9.230;2023-01-01T04:43:51;44.70;;;32.73;;
8580;SDS011;4328;48.622;9.230;2023-01-01T04:46:18;44.10;;;35.03;;
8580;SDS011;4328;48.622;9.230;2023-01-01T04:48:45;43.63;;;33.50;;
8580;SDS011;4328;48.622;9.230;2023-01-01T04:51:13;42.37;;;32.53;;
8580;SDS011;4328;48.622;9.230;2023-01-01T04:53:40;48.97;;;34.17;;
8580;SDS011;4328;48.622;9.230;2023-01-01T04:56:07;38.87;;;30.97;;
8580;SDS011;4328;48.622;9.230;2023-01-01T04:58:34;36.03;;;28.00;;
8580;SDS011;4328;48.622;9.230;2023-01-01T05:01:00;34.13;;;25.97;;
8580;SDS011;4328;48.622;9.230;2023-01-01T05:03:27;33.87;;;26.53;;
8580;SDS011;4328;48.622;9.230;2023-01-01T05:05:59;36.87;;;27.23;;
8580;SDS011;4328;48.622;9.230;2023-01-01T05:08:28;37.00;;;27.40;;
8580;SDS011;4328;48.622;9.230;2023-01-01T05:10:58;35.17;;;27.97;;
8580;SDS011;4328;48.622;9.230;2023-01-01T05:13:24;36.87;;;26.20;;
8580;SDS011;4328;48.622;9.230;2023-01-01T05:15:51;35.43;;;27.33;;
8580;SDS011;4328;48.622;9.230;2023-01-01T05:18:17;38.07;;;27.90;;
8580;SDS011;4328;48.622;9.230;2023-01-01T05:20:43;39.80;;;28.27;;
8580;SDS011;4328;48.622;9.230;2023-01-01T05:23:10;38.20;;;29.43;;
8580;SDS011;4328;48.622;9.230;2023-01-01T05:25:38;33.87;;;26.17;;
8580;SDS011;4328;48.622;9.230;2023-01-01T05:28:04;34.60;;;26.63;;
8580;SDS011;4328;48.622;9.230;2023-01-01T05:30:30;35.33;;;25.87;;
8580;SDS011;4328;48.622;9.230;2023-01-01T05:32:57;37.03;;;27.83;;
8580;SDS011;4328;48.622;9.230;2023-01-01T05:35:23;37.50;;;28.50;;
8580;SDS011;4328;48.622;9.230;2023-01-01T05:37:50;36.20;;;27.13;;
8580;SDS011;4328;48.622;9.230;2023-01-01T05:40:17;30.40;;;23.83;;
8580;SDS011;4328;48.622;9.230;2023-01-01T05:42:46;33.00;;;24.90;;
8580;SDS011;4328;48.622;9.230;2023-01-01T05:45:13;31.13;;;23.60;;
8580;SDS011;4328;48.622;9.230;2023-01-01T05:47:39;30.20;;;24.13;;
8580;SDS011;4328;48.622;9.230;2023-01-01T05:50:06;28.17;;;21.07;;
8580;SDS011;4328;48.622;9.230;2023-01-01T05:52:32;26.97;;;20.40;;
8580;SDS011;4328;48.622;9.230;2023-01-01T05:54:59;25.20;;;18.43;;
8580;SDS011;4328;48.622;9.230;2023-01-01T05:57:26;23.47;;;18.37;;
8580;SDS011;4328;48.622;9.230;2023-01-01T05:59:54;23.53;;;18.20;;
8580;SDS011;4328;48.622;9.230;2023-01-01T06:02:20;22.73;;;18.03;;
8580;SDS011;4328;48.622;9.230;2023-01-01T06:04:47;22.50;;;16.23;;
8580;SDS011;4328;48.622;9.230;2023-01-01T06:07:13;21.23;;;16.03;;
8580;SDS011;4328;48.622;9.230;2023-01-01T06:09:40;22.07;;;17.17;;
8580;SDS011;4328;48.622;9.230;2023-01-01T06:12:06;20.70;;;17.07;;
8580;SDS011;4328;48.622;9.230;2023-01-01T06:14:33;21.60;;;17.63;;
8580;SDS011;4328;48.622;9.230;2023-01-01T06:17:00;23.87;;;16.90;;
8580;SDS011;4328;48.622;9.230;2023-01-01T06:19:27;22.70;;;16.17;;
8580;SDS011;4328;48.622;9.230;2023-01-01T06:21:53;20.27;;;16.97;;
8580;SDS011;4328;48.622;9.230;2023-01-01T06:24:20;24.40;;;17.97;;
8580;SDS011;4328;48.622;9.230;2023-01-01T06:26:46;21.40;;;17.53;;
8580;SDS011;4328;48.622;9.230;2023-01-01T06:29:12;20.57;;;15.73;;
8580;SDS011;4328;48.622;9.230;2023-01-01T06:31:39;21.13;;;15.97;;
8580;SDS011;4328;48.622;9.230;2023-01-01T06:34:07;20.67;;;15.57;;
8580;SDS011;4328;48.622;9.230;2023-01-01T06:36:33;19.73;;;15.33;;
8580;SDS011;4328;48.622;9.230;2023-01-01T06:39:00;20.53;;;14.90;;
8580;SDS011;4328;48.622;9.230;2023-01-01T06:41:27;19.40;;;14.60;;
8580;SDS011;4328;48.622;9.230;2023-01-01T06:43:54;20.43;;;15.83;;
8580;SDS011;4328;48.622;9.230;2023-01-01T06:46:22;20.80;;;17.00;;
8580;SDS011;4328;48.622;9.230;2023-01-01T06:48:49;17.23;;;14.93;;
8580;SDS011;4328;48.622;9.230;2023-01-01T06:51:18;23.67;;;16.53;;
8580;SDS011;4328;48.622;9.230;2023-01-01T06:53:45;23.00;;;17.33;;
8580;SDS011;4328;48.622;9.230;2023-01-01T06:56:12;19.90;;;16.97;;
8580;SDS011;4328;48.622;9.230;2023-01-01T06:58:38;23.10;;;17.07;;
8580;SDS011;4328;48.622;9.230;2023-01-01T07:01:05;21.97;;;17.63;;
8580;SDS011;4328;48.622;9.230;2023-01-01T07:03:32;21.10;;;16.40;;
8580;SDS011;4328;48.622;9.230;2023-01-01T07:05:59;16.77;;;14.07;;
8580;SDS011;4328;48.622;9.230;2023-01-01T07:08:26;21.90;;;16.90;;
8580;SDS011;4328;48.622;9.230;2023-01-01T07:10:53;20.93;;;17.13;;
8580;SDS011;4328;48.622;9.230;2023-01-01T07:13:21;19.83;;;16.53;;
8580;SDS011;4328;48.622;9.230;2023-01-01T07:15:47;18.63;;;15.30;;
8580;SDS011;4328;48.622;9.230;2023-01-01T07:18:14;20.17;;;16.60;;
8580;SDS011;4328;48.622;9.230;2023-01-01T07:20:40;21.60;;;16.77;;
8580;SDS011;4328;48.622;9.230;2023-01-01T07:23:07;21.00;;;15.93;;
8580;SDS011;4328;48.622;9.230;2023-01-01T07:25:35;21.30;;;17.33;;
8580;SDS011;4328;48.622;9.230;2023-01-01T07:28:01;20.33;;;16.37;;
8580;SDS011;4328;48.622;9.230;2023-01-01T07:30:27;21.30;;;15.33;;
8580;SDS011;4328;48.622;9.230;2023-01-01T07:32:54;17.40;;;14.27;;
8580;SDS011;4328;48.622;9.230;2023-01-01T07:35:20;16.23;;;14.13;;
8580;SDS011;4328;48.622;9.230;2023-01-01T07:37:47;16.57;;;13.73;;
8580;SDS011;4328;48.622;9.230;2023-01-01T07:40:13;15.57;;;12.97;;
8580;SDS011;4328;48.622;9.230;2023-01-01T07:42:41;16.63;;;12.47;;
8580;SDS011;4328;48.622;9.230;2023-01-01T07:45:08;15.83;;;11.63;;
8580;SDS011;4328;48.622;9.230;2023-01-01T07:47:36;13.03;;;11.23;;
8580;SDS011;4328;48.622;9.230;2023-01-01T07:50:02;13.87;;;11.10;;
8580;SDS011;4328;48.622;9.230;2023-01-01T07:52:28;12.83;;;10.87;;
8580;SDS011;4328;48.622;9.230;2023-01-01T07:54:55;11.90;;;9.83;;
8580;SDS011;4328;48.622;9.230;2023-01-01T07:57:21;13.00;;;9.83;;
8580;SDS011;4328;48.622;9.230;2023-01-01T07:59:49;13.17;;;10.73;;
8580;SDS011;4328;48.622;9.230;2023-01-01T08:02:15;13.23;;;10.60;;
8580;SDS011;4328;48.622;9.230;2023-01-01T08:04:42;12.10;;;10.20;;
8580;SDS011;4328;48.622;9.230;2023-01-01T08:07:08;11.27;;;9.63;;
8580;SDS011;4328;48.622;9.230;2023-01-01T08:09:34;10.50;;;9.00;;
8580;SDS011;4328;48.622;9.230;2023-01-01T08:12:01;13.20;;;10.00;;
8580;SDS011;4328;48.622;9.230;2023-01-01T08:14:27;10.40;;;8.93;;
8580;SDS011;4328;48.622;9.230;2023-01-01T08:16:55;11.10;;;8.37;;
8580;SDS011;4328;48.622;9.230;2023-01-01T08:19:21;9.60;;;8.33;;
8580;SDS011;4328;48.622;9.230;2023-01-01T08:21:48;10.10;;;8.90;;
8580;SDS011;4328;48.622;9.230;2023-01-01T08:24:14;14.00;;;9.93;;
8580;SDS011;4328;48.622;9.230;2023-01-01T08:26:41;10.70;;;9.23;;
8580;SDS011;4328;48.622;9.230;2023-01-01T08:29:08;11.30;;;10.10;;
8580;SDS011;4328;48.622;9.230;2023-01-01T08:31:35;10.10;;;9.10;;
8580;SDS011;4328;48.622;9.230;2023-01-01T08:34:03;9.80;;;8.80;;
8580;SDS011;4328;48.622;9.230;2023-01-01T08:36:29;9.07;;;8.20;;
8580;SDS011;4328;48.622;9.230;2023-01-01T08:38:56;10.80;;;8.33;;
8580;SDS011;4328;48.622;9.230;2023-01-01T08:41:22;8.30;;;7.50;;
8580;SDS011;4328;48.622;9.230;2023-01-01T08:43:48;8.77;;;7.87;;
8580;SDS011;4328;48.622;9.230;2023-01-01T08:46:15;7.83;;;6.93;;
8580;SDS011;4328;48.622;9.230;2023-01-01T08:48:41;8.20;;;7.40;;
8580;SDS011;4328;48.622;9.230;2023-01-01T08:51:09;10.57;;;7.80;;
8580;SDS011;4328;48.622;9.230;2023-01-01T08:53:36;8.03;;;7.23;;
8580;SDS011;4328;48.622;9.230;2023-01-01T08:56:03;11.83;;;9.30;;
8580;SDS011;4328;48.622;9.230;2023-01-01T08:58:29;11.43;;;9.67;;
8580;SDS011;4328;48.622;9.230;2023-01-01T09:00:56;11.00;;;9.10;;
8580;SDS011;4328;48.622;9.230;2023-01-01T09:03:23;10.80;;;8.60;;
8580;SDS011;4328;48.622;9.230;2023-01-01T09:05:50;8.00;;;7.20;;
8580;SDS011;4328;48.622;9.230;2023-01-01T09:08:18;8.37;;;7.23;;
8580;SDS011;4328;48.622;9.230;2023-01-01T09:10:44;8.67;;;7.03;;
8580;SDS011;4328;48.622;9.230;2023-01-01T09:13:11;7.57;;;6.83;;
8580;SDS011;4328;48.622;9.230;2023-01-01T09:15:38;8.07;;;6.93;;
8580;SDS011;4328;48.622;9.230;2023-01-01T09:18:06;7.43;;;6.63;;
8580;SDS011;4328;48.622;9.230;2023-01-01T09:20:33;7.67;;;6.40;;
8580;SDS011;4328;48.622;9.230;2023-01-01T09:22:59;6.83;;;5.93;;
8580;SDS011;4328;48.622;9.230;2023-01-01T09:25:27;6.60;;;6.03;;
8580;SDS011;4328;48.622;9.230;2023-01-01T09:27:55;6.80;;;6.10;;
8580;SDS011;4328;48.622;9.230;2023-01-01T09:30:21;10.63;;;8.10;;
8580;SDS011;4328;48.622;9.230;2023-01-01T09:32:48;20.80;;;15.80;;
8580;SDS011;4328;48.622;9.230;2023-01-01T09:35:14;9.80;;;8.53;;
8580;SDS011;4328;48.622;9.230;2023-01-01T09:37:41;7.40;;;6.70;;
8580;SDS011;4328;48.622;9.230;2023-01-01T09:40:08;7.07;;;5.90;;
8580;SDS011;4328;48.622;9.230;2023-01-01T09:42:48;5.67;;;5.13;;
8580;SDS011;4328;48.622;9.230;2023-01-01T09:45:19;6.37;;;4.73;;
8580;SDS011;4328;48.622;9.230;2023-01-01T09:47:46;7.20;;;6.60;;
8580;SDS011;4328;48.622;9.230;2023-01-01T09:50:16;5.83;;;5.33;;
8580;SDS011;4328;48.622;9.230;2023-01-01T09:52:44;6.23;;;5.30;;
8580;SDS011;4328;48.622;9.230;2023-01-01T09:55:15;5.30;;;4.80;;
8580;SDS011;4328;48.622;9.230;2023-01-01T09:57:43;5.77;;;5.00;;
8580;SDS011;4328;48.622;9.230;2023-01-01T10:00:14;5.40;;;5.00;;
8580;SDS011;4328;48.622;9.230;2023-01-01T10:02:43;6.37;;;5.77;;
8580;SDS011;4328;48.622;9.230;2023-01-01T10:05:17;6.33;;;5.80;;
8580;SDS011;4328;48.622;9.230;2023-01-01T10:07:47;6.07;;;5.57;;
8580;SDS011;4328;48.622;9.230;2023-01-01T10:10:19;6.23;;;5.40;;
8580;SDS011;4328;48.622;9.230;2023-01-01T10:12:49;6.00;;;5.40;;
8580;SDS011;4328;48.622;9.230;2023-01-01T10:15:19;7.27;;;6.53;;
8580;SDS011;4328;48.622;9.230;2023-01-01T10:17:48;8.33;;;6.53;;
8580;SDS011;4328;48.622;9.230;2023-01-01T10:20:18;7.80;;;6.97;;
8580;SDS011;4328;48.622;9.230;2023-01-01T10:22:46;7.90;;;7.10;;
8580;SDS011;4328;48.622;9.230;2023-01-01T10:25:15;8.07;;;7.37;;
8580;SDS011;4328;48.622;9.230;2023-01-01T10:27:43;8.20;;;7.40;;
8580;SDS011;4328;48.622;9.230;2023-01-01T10:30:12;9.17;;;8.33;;
8580;SDS011;4328;48.622;9.230;2023-01-01T10:32:41;8.30;;;7.50;;
8580;SDS011;4328;48.622;9.230;2023-01-01T10:35:11;8.43;;;7.67;;
8580;SDS011;4328;48.622;9.230;2023-01-01T10:37:38;7.80;;;7.17;;
8580;SDS011;4328;48.622;9.230;2023-01-01T10:40:05;8.27;;;7.33;;
8580;SDS011;4328;48.622;9.230;2023-01-01T10:42:32;7.70;;;7.00;;
8580;SDS011;4328;48.622;9.230;2023-01-01T10:44:59;8.63;;;7.83;;
8580;SDS011;4328;48.622;9.230;2023-01-01T10:47:29;8.30;;;7.07;;
8580;SDS011;4328;48.622;9.230;2023-01-01T10:49:58;7.30;;;6.70;;
8580;SDS011;4328;48.622;9.230;2023-01-01T10:52:25;8.00;;;7.23;;
8580;SDS011;4328;48.622;9.230;2023-01-01T10:54:52;8.07;;;7.37;;
8580;SDS011;4328;48.622;9.230;2023-01-01T10:57:20;6.83;;;6.23;;
8580;SDS011;4328;48.622;9.230;2023-01-01T10:59:54;8.23;;;7.43;;
8580;SDS011;4328;48.622;9.230;2023-01-01T11:02:33;9.00;;;7.50;;
8580;SDS011;4328;48.622;9.230;2023-01-01T11:05:16;7.60;;;6.90;;
8580;SDS011;4328;48.622;9.230;2023-01-01T11:07:42;10.27;;;9.38;;
8580;SDS011;4328;48.622;9.230;2023-01-01T11:10:16;10.93;;;9.80;;
8580;SDS011;4328;48.622;9.230;2023-01-01T11:12:43;8.07;;;7.43;;
8580;SDS011;4328;48.622;9.230;2023-01-01T11:15:19;9.30;;;8.40;;
8580;SDS011;4328;48.622;9.230;2023-01-01T11:17:45;8.18;;;7.35;;
8580;SDS011;4328;48.622;9.230;2023-01-01T11:20:16;7.43;;;6.63;;
8580;SDS011;4328;48.622;9.230;2023-01-01T11:22:44;8.73;;;7.93;;
8580;SDS011;4328;48.622;9.230;2023-01-01T11:25:21;12.35;;;11.15;;
8580;SDS011;4328;48.622;9.230;2023-01-01T11:27:48;11.52;;;10.38;;
8580;SDS011;4328;48.622;9.230;2023-01-01T11:30:19;7.70;;;6.80;;
8580;SDS011;4328;48.622;9.230;2023-01-01T11:32:46;5.93;;;5.30;;
8580;SDS011;4328;48.622;9.230;2023-01-01T11:35:14;4.10;;;3.80;;
8580;SDS011;4328;48.622;9.230;2023-01-01T11:37:44;3.40;;;3.10;;
8580;SDS011;4328;48.622;9.230;2023-01-01T11:40:15;4.40;;;3.13;;
8580;SDS011;4328;48.622;9.230;2023-01-01T11:42:43;4.25;;;3.40;;
8580;SDS011;4328;48.622;9.230;2023-01-01T11:45:12;3.78;;;3.05;;
8580;SDS011;4328;48.622;9.230;2023-01-01T11:47:40;4.38;;;3.00;;
8580;SDS011;4328;48.622;9.230;2023-01-01T11:50:16;2.75;;;2.55;;
8580;SDS011;4328;48.622;9.230;2023-01-01T11:52:45;3.53;;;3.22;;
8580;SDS011;4328;48.622;9.230;2023-01-01T11:55:15;6.97;;;3.17;;
8580;SDS011;4328;48.622;9.230;2023-01-01T11:57:45;4.95;;;2.83;;
8580;SDS011;4328;48.622;9.230;2023-01-01T12:00:13;4.68;;;2.15;;
8580;SDS011;4328;48.622;9.230;2023-01-01T12:02:41;2.85;;;2.47;;
8580;SDS011;4328;48.622;9.230;2023-01-01T12:05:12;4.72;;;2.38;;
8580;SDS011;4328;48.622;9.230;2023-01-01T12:07:41;3.78;;;2.40;;
8580;SDS011;4328;48.622;9.230;2023-01-01T12:10:12;3.03;;;2.72;;
8580;SDS011;4328;48.622;9.230;2023-01-01T12:12:41;3.15;;;2.28;;
8580;SDS011;4328;48.622;9.230;2023-01-01T12:15:13;3.53;;;2.35;;
8580;SDS011;4328;48.622;9.230;2023-01-01T12:17:41;4.97;;;3.13;;
8580;SDS011;4328;48.622;9.230;2023-01-01T12:20:10;2.63;;;2.42;;
8580;SDS011;4328;48.622;9.230;2023-01-01T12:22:38;2.92;;;2.60;;
8580;SDS011;4328;48.622;9.230;2023-01-01T12:25:04;5.22;;;2.10;;
8580;SDS011;4328;48.622;9.230;2023-01-01T12:27:42;5.30;;;3.42;;
8580;SDS011;4328;48.622;9.230;2023-01-01T12:30:14;5.10;;;3.95;;
8580;SDS011;4328;48.622;9.230;2023-01-01T12:32:48;4.50;;;3.35;;
8580;SDS011;4328;48.622;9.230;2023-01-01T12:35:20;3.15;;;2.70;;
8580;SDS011;4328;48.622;9.230;2023-01-01T12:37:52;5.55;;;3.85;;
8580;SDS011;4328;48.622;9.230;2023-01-01T12:40:32;5.97;;;4.40;;
8580;SDS011;4328;48.622;9.230;2023-01-01T12:43:01;5.28;;;2.40;;
8580;SDS011;4328;48.622;9.230;2023-01-01T12:45:37;4.70;;;2.40;;
8580;SDS011;4328;48.622;9.230;2023-01-01T12:48:08;3.42;;;2.65;;
8580;SDS011;4328;48.622;9.230;2023-01-01T12:50:46;4.18;;;2.00;;
8580;SDS011;4328;48.622;9.230;2023-01-01T12:53:20;4.72;;;2.10;;
8580;SDS011;4328;48.622;9.230;2023-01-01T12:58:41;2.97;;;2.30;;
8580;SDS011;4328;48.622;9.230;2023-01-01T13:01:10;3.10;;;2.30;;
8580;SDS011;4328;48.622;9.230;2023-01-01T13:03:40;4.97;;;4.15;;
8580;SDS011;4328;48.622;9.230;2023-01-01T13:06:08;4.35;;;2.30;;
8580;SDS011;4328;48.622;9.230;2023-01-01T13:08:37;5.18;;;2.40;;
8580;SDS011;4328;48.622;9.230;2023-01-01T13:11:05;5.25;;;3.63;;
8580;SDS011;4328;48.622;9.230;2023-01-01T13:13:32;4.63;;;4.25;;
8580;SDS011;4328;48.622;9.230;2023-01-01T13:16:00;6.60;;;3.90;;
8580;SDS011;4328;48.622;9.230;2023-01-01T13:18:27;7.93;;;4.40;;
8580;SDS011;4328;48.622;9.230;2023-01-01T13:21:04;3.70;;;3.40;;
8580;SDS011;4328;48.622;9.230;2023-01-01T13:23:39;5.60;;;3.57;;
8580;SDS011;4328;48.622;9.230;2023-01-01T13:39:53;5.40;;;3.27;;
8580;SDS011;4328;48.622;9.230;2023-01-01T13:45:06;5.27;;;3.60;;
8580;SDS011;4328;48.622;9.230;2023-01-01T13:47:38;5.77;;;3.53;;
8580;SDS011;4328;48.622;9.230;2023-01-01T13:50:11;5.43;;;3.30;;
8580;SDS011;4328;48.622;9.230;2023-01-01T13:52:52;9.07;;;3.97;;
8580;SDS011;4328;48.622;9.230;2023-01-01T14:00:56;6.77;;;3.63;;
8580;SDS011;4328;48.622;9.230;2023-01-01T14:03:26;5.97;;;3.43;;
8580;SDS011;4328;48.622;9.230;2023-01-01T14:05:54;5.47;;;3.27;;
8580;SDS011;4328;48.622;9.230;2023-01-01T14:08:27;5.33;;;3.43;;
8580;SDS011;4328;48.622;9.230;2023-01-01T14:10:55;7.60;;;3.50;;
8580;SDS011;4328;48.622;9.230;2023-01-01T14:13:21;5.17;;;3.23;;
8580;SDS011;4328;48.622;9.230;2023-01-01T14:15:52;4.57;;;3.20;;
8580;SDS011;4328;48.622;9.230;2023-01-01T14:18:20;4.70;;;3.33;;
8580;SDS011;4328;48.622;9.230;2023-01-01T14:20:48;5.57;;;3.23;;
8580;SDS011;4328;48.622;9.230;2023-01-01T14:23:18;5.70;;;3.00;;
8580;SDS011;4328;48.622;9.230;2023-01-01T14:25:45;5.20;;;3.10;;
8580;SDS011;4328;48.622;9.230;2023-01-01T14:28:13;5.47;;;3.30;;
8580;SDS011;4328;48.622;9.230;2023-01-01T14:30:42;4.23;;;2.90;;
8580;SDS011;4328;48.622;9.230;2023-01-01T14:33:19;6.20;;;3.43;;
8580;SDS011;4328;48.622;9.230;2023-01-01T14:35:51;7.60;;;3.00;;
8580;SDS011;4328;48.622;9.230;2023-01-01T14:38:21;5.43;;;3.20;;
8580;SDS011;4328;48.622;9.230;2023-01-01T14:40:50;5.23;;;3.27;;
8580;SDS011;4328;48.622;9.230;2023-01-01T14:43:23;3.10;;;2.80;;
8580;SDS011;4328;48.622;9.230;2023-01-01T14:45:50;6.97;;;3.23;;
8580;SDS011;4328;48.622;9.230;2023-01-01T14:48:18;3.93;;;3.07;;
8580;SDS011;4328;48.622;9.230;2023-01-01T14:50:45;4.77;;;3.07;;
8580;SDS011;4328;48.622;9.230;2023-01-01T14:53:15;6.80;;;3.00;;
8580;SDS011;4328;48.622;9.230;2023-01-01T14:55:44;3.30;;;2.97;;
8580;SDS011;4328;48.622;9.230;2023-01-01T14:58:12;4.47;;;3.10;;
8580;SDS011;4328;48.622;9.230;2023-01-01T15:00:41;3.30;;;3.00;;
8580;SDS011;4328;48.622;9.230;2023-01-01T15:03:11;6.00;;;4.40;;
8580;SDS011;4328;48.622;9.230;2023-01-01T15:05:37;6.27;;;4.83;;
8580;SDS011;4328;48.622;9.230;2023-01-01T15:08:05;6.70;;;5.37;;
8580;SDS011;4328;48.622;9.230;2023-01-01T15:10:35;11.77;;;6.83;;
8580;SDS011;4328;48.622;9.230;2023-01-01T15:13:03;8.53;;;6.00;;
8580;SDS011;4328;48.622;9.230;2023-01-01T15:15:37;11.00;;;6.90;;
8580;SDS011;4328;48.622;9.230;2023-01-01T15:18:04;8.13;;;5.83;;
8580;SDS011;4328;48.622;9.230;2023-01-01T15:20:32;7.07;;;6.33;;
8580;SDS011;4328;48.622;9.230;2023-01-01T15:23:00;9.67;;;7.67;;
8580;SDS011;4328;48.622;9.230;2023-01-01T15:25:26;11.90;;;10.70;;
8580;SDS011;4328;48.622;9.230;2023-01-01T15:27:55;10.50;;;8.00;;
8580;SDS011;4328;48.622;9.230;2023-01-01T15:30:23;11.43;;;8.03;;
8580;SDS011;4328;48.622;9.230;2023-01-01T15:32:50;9.13;;;5.13;;